This is the latest recevied weather packets stored in our database for station/object N4AN. If no packets are shown the sender has not sent any weather packets the latest 10 day(s).
| Time | Temp. | Humidity | Pressure | Rain* | Wind** | Luminosity | Snow |
|---|---|---|---|---|---|---|---|
| 1787673289 | 34.44° C | 66% | 1012.4 hPa | 0 mm | - | - | - |
| 1787672987 | 34.44° C | 66% | 1012.5 hPa | 0 mm | - | - | - |
| 1787672686 | 34.44° C | 66% | 1012.6 hPa | 0 mm | - | - | - |
| 1787672386 | 33.89° C | 67% | 1012.8 hPa | 0 mm | - | - | - |
| 1787672086 | 33.89° C | 67% | 1012.5 hPa | 0 mm | - | - | - |
| 1787671786 | 33.89° C | 67% | 1012.5 hPa | 0 mm | - | - | - |
| 1787671485 | 33.89° C | 67% | 1012.4 hPa | 0 mm | - | - | - |
| 1787671185 | 33.89° C | 68% | 1012.6 hPa | 0 mm | - | - | - |
| 1787670885 | 33.33° C | 68% | 1012.8 hPa | 0 mm | - | - | - |
| 1787670584 | 32.78° C | 71% | 1012.9 hPa | 0 mm | - | - | - |
| 1787670284 | 32.22° C | 72% | 1012.9 hPa | 0 mm | - | - | - |
| 1787669984 | 31.67° C | 74% | 1012.9 hPa | 0 mm | - | - | - |
| 1787669684 | 31.11° C | 76% | 1013 hPa | 0 mm | - | - | - |
| 1787669384 | 30.56° C | 76% | 1013.1 hPa | 0 mm | - | - | - |
| 1787669083 | 30.56° C | 76% | 1013.1 hPa | 0 mm | - | - | - |
| 1787668783 | 30.56° C | 74% | 1013.1 hPa | 0 mm | - | - | - |
| 1787668482 | 31.11° C | 73% | 1013.1 hPa | 0 mm | - | - | - |
| 1787668182 | 31.11° C | 73% | 1012.9 hPa | 0 mm | - | - | - |
| 1787667882 | 31.11° C | 73% | 1012.7 hPa | 0 mm | - | - | - |
| 1787667582 | 31.11° C | 74% | 1012.7 hPa | 0 mm | - | - | - |
| 1787667281 | 31.11° C | 73% | 1012.8 hPa | 0 mm | - | - | - |
| 1787666981 | 31.67° C | 72% | 1012.6 hPa | 0 mm | - | - | - |
| 1787666681 | 32.78° C | 70% | 1012.7 hPa | 0 mm | - | - | - |
| 1787666381 | 32.78° C | 68% | 1012.5 hPa | 0 mm | - | - | - |
| 1787666080 | 33.33° C | 65% | 1012.4 hPa | 0 mm | - | - | - |
* Rain latest hour (hover to see other rain measurements)
** Current wind speed in m/s (hover to see current wind gust speed)